< < Back
Terminal Aerodrome Forecast


Current Version              Previous Versions:   1  2  3  4  5  6  7  8  9  

Terminal Aerodrome Forecast

405
FTUS44 KBMX 281100
TAFMGM
TAF
KMGM 281122Z 2812/2912 03003KT P6SM SKC=

Latest METAR

099
SAUS80 KWBC 291000 RRC
MTRMGM
METAR KMGM 290953Z AUTO 00000KT 10SM CLR 03/M01 A3029 RMK AO2 SLP256
T00281011


USA.gov is the U.S. government's official web portal to all federal, state and local government web resources and services.